createdAt,value
2022-10-24T00:00:53.511Z,60.76
2022-10-24T00:03:20.051Z,60.27
2022-10-24T00:05:47.410Z,60.61
2022-10-24T00:08:14.261Z,60.36
2022-10-24T00:10:42.319Z,60.49
2022-10-24T00:13:08.861Z,60.97
2022-10-24T00:15:35.434Z,60.69
2022-10-24T00:18:01.911Z,60.91
2022-10-24T00:20:28.520Z,60.90
2022-10-24T00:22:55.019Z,60.98
2022-10-24T00:25:21.590Z,60.92
2022-10-24T00:27:48.173Z,61.02
2022-10-24T00:30:14.748Z,60.84
2022-10-24T00:32:42.398Z,60.84
2022-10-24T00:35:09.921Z,61.13
2022-10-24T00:37:36.451Z,61.04
2022-10-24T00:40:05.327Z,61.23
2022-10-24T00:42:31.974Z,61.08
2022-10-24T00:44:58.723Z,61.33
2022-10-24T00:47:26.375Z,61.10
2022-10-24T00:50:04.451Z,61.31
2022-10-24T00:52:32.079Z,61.37
2022-10-24T00:54:59.241Z,61.39
2022-10-24T00:57:34.278Z,61.17
2022-10-24T01:00:02.278Z,61.23
2022-10-24T01:02:28.866Z,61.46
2022-10-24T01:04:55.526Z,61.26
2022-10-24T01:07:25.272Z,61.32
2022-10-24T01:09:54.701Z,61.42
2022-10-24T01:12:46.390Z,61.33
2022-10-24T01:15:16.202Z,61.46
2022-10-24T01:17:45.507Z,61.79
2022-10-24T01:20:17.913Z,61.91
2022-10-24T01:23:03.074Z,61.73
2022-10-24T01:25:32.698Z,61.87
2022-10-24T01:28:17.499Z,61.92
2022-10-24T01:30:45.485Z,61.68
2022-10-24T01:33:32.225Z,61.67
2022-10-24T01:36:00.463Z,62.09
2022-10-24T01:38:28.903Z,61.74
2022-10-24T01:40:55.495Z,61.88
2022-10-24T01:43:24.083Z,61.59
2022-10-24T01:45:52.550Z,62.18
2022-10-24T01:48:20.203Z,61.81
2022-10-24T01:50:47.145Z,62.13
2022-10-24T01:53:13.753Z,61.73
2022-10-24T01:55:40.525Z,61.72
2022-10-24T01:58:07.688Z,62.04
2022-10-24T02:00:34.435Z,61.99
2022-10-24T02:03:02.128Z,61.86
2022-10-24T02:05:28.761Z,62.13
2022-10-24T02:07:56.760Z,61.83
2022-10-24T02:10:26.507Z,61.89
2022-10-24T02:12:54.504Z,61.87
2022-10-24T02:15:24.896Z,62.28
2022-10-24T02:17:51.610Z,62.28
2022-10-24T02:20:18.211Z,61.93
2022-10-24T02:22:50.021Z,62.05
2022-10-24T02:25:22.371Z,62.30
2022-10-24T02:27:53.902Z,62.58
2022-10-24T02:30:22.041Z,62.39
2022-10-24T02:32:52.375Z,62.17
2022-10-24T02:35:19.847Z,62.28
2022-10-24T02:37:48.019Z,62.04
2022-10-24T02:40:15.255Z,62.34
2022-10-24T02:42:42.186Z,61.92
2022-10-24T02:45:10.041Z,62.08
2022-10-24T02:47:36.597Z,62.35
2022-10-24T02:50:03.260Z,62.10
2022-10-24T02:52:30.424Z,62.00
2022-10-24T02:54:57.111Z,62.29
2022-10-24T02:57:25.207Z,62.25
2022-10-24T02:59:51.734Z,62.58
2022-10-24T03:02:18.217Z,62.26
2022-10-24T03:04:44.918Z,62.17
2022-10-24T03:07:11.612Z,62.13
2022-10-24T03:09:38.215Z,62.07
2022-10-24T03:12:04.849Z,62.02
2022-10-24T03:14:31.508Z,62.10
2022-10-24T03:16:57.989Z,62.54
2022-10-24T03:19:24.663Z,62.51
2022-10-24T03:21:51.771Z,62.46
2022-10-24T03:24:26.815Z,62.46
2022-10-24T03:27:03.813Z,62.56
2022-10-24T03:29:30.329Z,62.16
2022-10-24T03:31:56.947Z,62.50
2022-10-24T03:34:23.484Z,62.47
2022-10-24T03:36:50.091Z,62.44
2022-10-24T03:39:16.608Z,62.40
2022-10-24T03:41:43.231Z,62.22
2022-10-24T03:44:09.724Z,62.33
2022-10-24T03:46:36.452Z,62.13
2022-10-24T03:49:02.983Z,62.58
2022-10-24T03:51:29.580Z,62.29
2022-10-24T03:53:56.131Z,62.75
2022-10-24T03:56:22.798Z,62.29
2022-10-24T03:58:49.350Z,62.69
2022-10-24T04:01:18.351Z,62.26
2022-10-24T04:03:47.650Z,62.49
2022-10-24T04:06:14.379Z,62.70
2022-10-24T04:08:40.946Z,62.81
2022-10-24T04:11:07.625Z,62.61
2022-10-24T04:13:34.250Z,62.66
2022-10-24T04:16:00.960Z,62.08
2022-10-24T04:18:27.451Z,62.53
2022-10-24T04:20:54.052Z,62.21
2022-10-24T04:23:20.590Z,62.48
2022-10-24T04:25:47.214Z,62.13
2022-10-24T04:28:13.739Z,62.21
2022-10-24T04:30:40.432Z,62.60
2022-10-24T04:33:07.040Z,62.52
2022-10-24T04:35:33.657Z,62.45
2022-10-24T04:38:00.245Z,62.65
2022-10-24T04:40:26.968Z,62.19
2022-10-24T04:42:53.498Z,62.25
2022-10-24T04:45:20.170Z,62.33
2022-10-24T04:47:46.828Z,62.48
2022-10-24T04:50:13.503Z,62.55
2022-10-24T04:52:40.134Z,62.25
2022-10-24T04:55:06.963Z,62.45
2022-10-24T04:57:33.539Z,62.11
2022-10-24T05:00:00.113Z,62.60
2022-10-24T05:02:26.726Z,62.05
2022-10-24T05:04:53.359Z,62.31
2022-10-24T05:07:21.595Z,62.35
2022-10-24T05:09:48.191Z,62.43
2022-10-24T05:12:14.804Z,62.09
2022-10-24T05:14:41.347Z,62.50
2022-10-24T05:17:07.838Z,62.50
2022-10-24T05:19:34.502Z,62.20
2022-10-24T05:22:01.053Z,62.32
2022-10-24T05:24:27.661Z,62.41
2022-10-24T05:26:54.171Z,62.70
2022-10-24T05:29:20.752Z,62.60
2022-10-24T05:31:47.329Z,62.49
2022-10-24T05:34:13.893Z,62.18
2022-10-24T05:36:40.477Z,62.49
2022-10-24T05:39:07.115Z,62.10
2022-10-24T05:41:33.670Z,62.40
2022-10-24T05:44:00.303Z,62.39
2022-10-24T05:46:27.051Z,62.60
2022-10-24T05:48:53.644Z,62.55
2022-10-24T05:51:20.201Z,62.43
2022-10-24T05:53:46.831Z,62.36
2022-10-24T05:56:13.370Z,62.18
2022-10-24T05:58:39.993Z,62.38
2022-10-24T06:01:06.577Z,62.51
2022-10-24T06:03:33.192Z,62.53
2022-10-24T06:06:03.358Z,62.62
2022-10-24T06:08:29.979Z,62.23
2022-10-24T06:10:56.479Z,62.17
2022-10-24T06:13:23.075Z,62.24
2022-10-24T06:15:49.699Z,62.55
2022-10-24T06:18:16.531Z,62.64
2022-10-24T06:20:43.063Z,62.65
2022-10-24T06:23:09.745Z,62.66
2022-10-24T06:25:36.314Z,62.35
2022-10-24T06:28:02.983Z,62.74
2022-10-24T06:30:29.599Z,62.76
2022-10-24T06:32:56.167Z,62.36
2022-10-24T06:35:22.653Z,62.48
2022-10-24T06:37:49.614Z,62.43
2022-10-24T06:40:17.275Z,62.65
2022-10-24T06:42:44.097Z,62.62
2022-10-24T06:45:10.731Z,62.79
2022-10-24T06:47:37.424Z,62.42
2022-10-24T06:50:04.319Z,62.70
2022-10-24T06:52:31.107Z,62.40
2022-10-24T06:54:57.639Z,62.82
2022-10-24T06:57:24.378Z,62.38
2022-10-24T06:59:50.929Z,62.79
2022-10-24T07:02:17.889Z,62.81
2022-10-24T07:04:44.766Z,62.68
2022-10-24T07:07:15.153Z,62.73
2022-10-24T07:09:41.886Z,62.87
2022-10-24T07:12:08.564Z,62.87
2022-10-24T07:14:35.230Z,62.43
2022-10-24T07:17:01.778Z,62.54
2022-10-24T07:19:28.434Z,62.68
2022-10-24T07:21:54.973Z,62.75
2022-10-24T07:24:22.711Z,62.82
2022-10-24T07:26:49.270Z,62.78
2022-10-24T07:29:15.871Z,62.82
2022-10-24T07:31:42.402Z,62.55
2022-10-24T07:34:09.110Z,62.66
2022-10-24T07:36:40.097Z,62.46
2022-10-24T07:39:10.025Z,62.78
2022-10-24T07:41:37.411Z,62.77
2022-10-24T07:44:04.059Z,62.72
2022-10-24T07:46:30.658Z,62.27
2022-10-24T07:48:57.252Z,62.65
2022-10-24T07:51:23.910Z,62.46
2022-10-24T07:53:50.808Z,62.80
2022-10-24T07:56:17.727Z,62.84
2022-10-24T07:58:44.685Z,62.76
2022-10-24T08:01:12.662Z,62.76
2022-10-24T08:03:39.367Z,62.17
2022-10-24T08:06:07.198Z,62.26
2022-10-24T08:08:37.823Z,62.16
2022-10-24T08:11:08.365Z,61.96
2022-10-24T08:13:35.069Z,62.00
2022-10-24T08:16:02.937Z,61.95
2022-10-24T08:18:30.441Z,62.23
2022-10-24T08:20:58.682Z,62.27
2022-10-24T08:23:25.684Z,62.35
2022-10-24T08:25:52.535Z,62.35
2022-10-24T08:28:19.232Z,62.41
2022-10-24T08:30:45.787Z,62.32
2022-10-24T08:33:17.288Z,62.29
2022-10-24T08:35:46.165Z,61.95
2022-10-24T08:38:12.775Z,62.02
2022-10-24T08:40:39.796Z,62.06
2022-10-24T08:43:06.351Z,62.03
2022-10-24T08:45:35.279Z,62.29
2022-10-24T08:48:06.099Z,62.30
2022-10-24T08:50:36.228Z,61.94
2022-10-24T08:53:19.121Z,62.16
2022-10-24T08:55:50.523Z,62.07
2022-10-24T08:58:18.635Z,61.88
2022-10-24T09:00:45.460Z,61.94
2022-10-24T09:03:43.852Z,62.01
2022-10-24T09:06:20.808Z,62.15
2022-10-24T09:08:47.959Z,62.20
2022-10-24T09:11:17.234Z,62.23
2022-10-24T09:13:43.829Z,61.86
2022-10-24T09:16:11.268Z,62.17
2022-10-24T09:18:39.187Z,62.00
2022-10-24T09:21:06.497Z,62.15
2022-10-24T09:23:33.303Z,61.83
2022-10-24T09:25:59.806Z,62.26
2022-10-24T09:28:26.427Z,62.18
2022-10-24T09:30:52.964Z,61.86
2022-10-24T09:33:29.928Z,61.69
2022-10-24T09:35:57.631Z,61.68
2022-10-24T09:38:35.198Z,61.61
2022-10-24T09:41:06.483Z,61.69
2022-10-24T09:43:34.755Z,61.90
2022-10-24T09:46:03.067Z,61.45
2022-10-24T09:48:30.681Z,61.56
2022-10-24T09:50:57.426Z,61.53
2022-10-24T09:53:28.083Z,61.64
2022-10-24T09:55:56.152Z,61.88
2022-10-24T09:58:29.795Z,61.71
2022-10-24T10:00:57.783Z,61.48
2022-10-24T10:03:24.479Z,61.54
2022-10-24T10:05:54.952Z,61.21
2022-10-24T10:08:21.596Z,61.50
2022-10-24T10:10:58.607Z,60.87
2022-10-24T10:13:26.866Z,60.85
2022-10-24T10:15:53.444Z,60.79
2022-10-24T10:18:19.961Z,60.60
2022-10-24T10:20:46.838Z,61.00
2022-10-24T10:23:17.614Z,60.41
2022-10-24T10:25:44.240Z,60.46
2022-10-24T10:28:21.114Z,60.00
2022-10-24T10:30:48.626Z,60.32
2022-10-24T10:33:17.923Z,60.16
2022-10-24T10:35:44.562Z,59.96
2022-10-24T10:38:17.085Z,59.61
2022-10-24T10:40:47.205Z,59.40
2022-10-24T10:43:26.187Z,59.44
2022-10-24T10:46:12.169Z,59.19
2022-10-24T10:48:44.931Z,59.13
2022-10-24T10:51:14.305Z,58.99
2022-10-24T10:53:43.830Z,58.84
2022-10-24T10:56:13.435Z,58.72
2022-10-24T10:58:39.992Z,58.73
2022-10-24T11:01:15.872Z,58.85
2022-10-24T11:03:42.592Z,58.60
2022-10-24T11:06:16.174Z,58.62
2022-10-24T11:09:01.594Z,58.59
2022-10-24T11:11:29.262Z,58.38
2022-10-24T11:14:14.352Z,58.11
2022-10-24T11:16:41.027Z,58.16
2022-10-24T11:19:19.063Z,58.00
2022-10-24T11:21:45.699Z,57.50
2022-10-24T11:24:13.948Z,57.59
2022-10-24T11:26:41.665Z,57.92
2022-10-24T11:29:20.047Z,57.30
2022-10-24T11:31:48.253Z,57.17
2022-10-24T11:34:25.572Z,57.07
2022-10-24T11:36:56.036Z,57.43
2022-10-24T11:39:22.935Z,56.80
2022-10-24T11:41:54.214Z,56.78
2022-10-24T11:44:24.006Z,57.09
2022-10-24T11:46:52.726Z,56.91
2022-10-24T11:49:20.716Z,56.70
2022-10-24T11:51:51.659Z,56.21
2022-10-24T11:54:37.204Z,56.07
2022-10-24T11:57:10.063Z,55.64
2022-10-24T11:59:39.713Z,55.27
2022-10-24T12:02:12.503Z,54.91
2022-10-24T12:04:39.076Z,54.34
2022-10-24T12:07:24.486Z,54.71
2022-10-24T12:09:54.784Z,54.21
2022-10-24T12:12:40.238Z,54.47
2022-10-24T12:15:09.605Z,54.44
2022-10-24T12:17:36.072Z,54.23
2022-10-24T12:20:02.713Z,54.08
2022-10-24T12:22:34.233Z,54.06
2022-10-24T12:25:19.605Z,53.77
2022-10-24T12:27:51.861Z,54.05
2022-10-24T12:30:21.646Z,54.01
2022-10-24T12:32:49.753Z,54.11
2022-10-24T12:35:35.447Z,54.01
2022-10-24T12:38:02.702Z,54.03
2022-10-24T12:40:48.122Z,53.56
2022-10-24T12:43:53.500Z,53.96
2022-10-24T12:46:26.031Z,53.56
2022-10-24T12:48:55.178Z,53.77
2022-10-24T12:51:37.204Z,53.25
2022-10-24T12:54:12.366Z,53.48
2022-10-24T12:56:53.794Z,53.27
2022-10-24T12:59:27.792Z,53.01
2022-10-24T13:02:12.961Z,53.33
2022-10-24T13:04:39.673Z,53.04
2022-10-24T13:07:18.295Z,53.16
2022-10-24T13:09:47.755Z,52.81
2022-10-24T13:12:24.677Z,52.69
2022-10-24T13:14:55.987Z,52.70
2022-10-24T13:17:22.567Z,52.97
2022-10-24T13:20:01.546Z,52.84
2022-10-24T13:22:29.351Z,52.77
2022-10-24T13:24:55.991Z,52.50
2022-10-24T13:27:24.312Z,52.50
2022-10-24T13:29:50.860Z,52.76
2022-10-24T13:32:20.064Z,52.89
2022-10-24T13:34:50.295Z,52.40
2022-10-24T13:37:26.439Z,52.36
2022-10-24T13:40:16.512Z,52.25
2022-10-24T13:42:52.627Z,52.58
2022-10-24T13:45:38.101Z,52.65
2022-10-24T13:48:09.154Z,52.32
2022-10-24T13:50:38.446Z,52.30
2022-10-24T13:53:05.085Z,52.38
2022-10-24T13:55:32.234Z,52.85
2022-10-24T13:58:08.649Z,52.48
2022-10-24T14:00:36.965Z,52.95
2022-10-24T14:03:04.029Z,52.83
2022-10-24T14:05:40.435Z,52.88
2022-10-24T14:08:07.447Z,52.97
2022-10-24T14:10:34.137Z,52.48
2022-10-24T14:13:00.778Z,52.80
2022-10-24T14:15:28.407Z,52.36
2022-10-24T14:17:59.393Z,52.65
2022-10-24T14:20:33.235Z,52.34
2022-10-24T14:23:00.023Z,52.04
2022-10-24T14:25:36.564Z,52.07
2022-10-24T14:28:09.135Z,52.16
2022-10-24T14:30:35.739Z,52.02
2022-10-24T14:33:06.122Z,52.24
2022-10-24T14:35:32.913Z,52.32
2022-10-24T14:37:59.628Z,52.37
2022-10-24T14:40:26.269Z,52.60
2022-10-24T14:42:52.774Z,52.93
2022-10-24T14:45:23.434Z,52.93
2022-10-24T14:47:50.619Z,53.06
2022-10-24T14:50:36.318Z,53.48
2022-10-24T14:53:04.362Z,53.41
2022-10-24T14:55:30.994Z,53.59
2022-10-24T14:57:57.612Z,53.74
2022-10-24T15:00:25.256Z,54.11
2022-10-24T15:02:52.539Z,53.84
2022-10-24T15:05:19.090Z,53.78
2022-10-24T15:08:09.145Z,53.85
2022-10-24T15:10:35.696Z,54.29
2022-10-24T15:13:03.415Z,54.31
2022-10-24T15:15:48.391Z,54.08
2022-10-24T15:18:14.956Z,53.82
2022-10-24T15:20:41.518Z,53.35
2022-10-24T15:23:14.452Z,53.62
2022-10-24T15:25:43.078Z,53.77
2022-10-24T15:28:29.767Z,53.33
2022-10-24T15:30:56.399Z,53.65
2022-10-24T15:33:22.883Z,53.34
2022-10-24T15:35:49.504Z,53.63
2022-10-24T15:38:16.988Z,53.33
2022-10-24T15:40:44.236Z,53.55
2022-10-24T15:43:14.195Z,53.54
2022-10-24T15:45:40.882Z,53.29
2022-10-24T15:48:07.445Z,53.37
2022-10-24T15:50:34.510Z,53.47
2022-10-24T15:53:01.983Z,53.60
2022-10-24T15:55:28.978Z,53.59
2022-10-24T15:57:57.273Z,53.70
2022-10-24T16:00:24.016Z,53.83
2022-10-24T16:02:51.288Z,53.91
2022-10-24T16:05:22.565Z,54.07
2022-10-24T16:07:52.017Z,54.10
2022-10-24T16:10:21.035Z,53.89
2022-10-24T16:12:47.984Z,53.50
2022-10-24T16:15:18.801Z,53.52
2022-10-24T16:17:45.667Z,53.22
2022-10-24T16:20:13.691Z,53.22
2022-10-24T16:22:41.504Z,53.84
2022-10-24T16:25:10.269Z,53.63
2022-10-24T16:27:36.899Z,54.01
2022-10-24T16:30:03.996Z,53.70
2022-10-24T16:32:30.643Z,53.99
2022-10-24T16:34:57.630Z,54.28
2022-10-24T16:37:24.203Z,54.64
2022-10-24T16:39:50.711Z,54.63
2022-10-24T16:42:18.780Z,54.11
2022-10-24T16:44:45.313Z,54.09
2022-10-24T16:47:11.903Z,54.45
2022-10-24T16:49:38.489Z,53.90
2022-10-24T16:52:05.156Z,54.01
2022-10-24T16:54:31.793Z,53.67
2022-10-24T16:56:58.422Z,53.67
2022-10-24T16:59:26.270Z,53.66
2022-10-24T17:01:52.893Z,54.08
2022-10-24T17:04:19.522Z,53.70
2022-10-24T17:06:46.062Z,54.18
2022-10-24T17:09:12.652Z,54.26
2022-10-24T17:11:45.486Z,54.53
2022-10-24T17:14:14.253Z,54.28
2022-10-24T17:16:41.508Z,54.84
2022-10-24T17:19:16.882Z,54.58
2022-10-24T17:21:46.801Z,54.61
2022-10-24T17:24:13.771Z,54.80
2022-10-24T17:26:41.161Z,55.15
2022-10-24T17:29:08.934Z,55.41
2022-10-24T17:31:35.620Z,54.98
2022-10-24T17:34:02.366Z,55.52
2022-10-24T17:36:30.683Z,55.47
2022-10-24T17:38:59.729Z,55.74
2022-10-24T17:41:27.438Z,55.80
2022-10-24T17:43:54.383Z,56.29
2022-10-24T17:46:21.139Z,56.08
2022-10-24T17:48:47.701Z,56.50
2022-10-24T17:51:21.658Z,56.35
2022-10-24T17:53:48.517Z,56.37
2022-10-24T17:56:15.114Z,56.29
2022-10-24T17:58:41.706Z,56.52
2022-10-24T18:01:08.358Z,56.76
2022-10-24T18:03:35.120Z,56.86
2022-10-24T18:06:05.656Z,56.53
2022-10-24T18:08:32.609Z,57.00
2022-10-24T18:11:02.627Z,56.58
2022-10-24T18:13:29.247Z,56.54
2022-10-24T18:15:55.935Z,56.42
2022-10-24T18:18:22.623Z,56.40
2022-10-24T18:20:49.167Z,56.87
2022-10-24T18:23:15.742Z,56.84
2022-10-24T18:25:42.274Z,56.85
2022-10-24T18:28:09.585Z,56.64
2022-10-24T18:30:36.120Z,56.82
2022-10-24T18:33:02.716Z,56.45
2022-10-24T18:35:33.102Z,56.68
2022-10-24T18:37:59.833Z,56.85
2022-10-24T18:40:26.414Z,56.48
2022-10-24T18:42:54.362Z,56.72
2022-10-24T18:45:22.028Z,56.75
2022-10-24T18:47:49.259Z,56.47
2022-10-24T18:50:17.009Z,56.31
2022-10-24T18:52:49.675Z,56.30
2022-10-24T18:55:18.209Z,56.42
2022-10-24T18:57:45.002Z,56.48
2022-10-24T19:00:13.473Z,56.80
2022-10-24T19:02:49.349Z,56.45
2022-10-24T19:05:23.441Z,56.39
2022-10-24T19:07:50.992Z,56.81
2022-10-24T19:10:18.866Z,56.34
2022-10-24T19:12:45.985Z,56.32
2022-10-24T19:15:13.267Z,56.52
2022-10-24T19:17:39.842Z,56.33
2022-10-24T19:20:06.787Z,56.27
2022-10-24T19:22:33.448Z,56.37
2022-10-24T19:24:59.991Z,56.36
2022-10-24T19:27:26.590Z,56.47
2022-10-24T19:29:53.156Z,56.34
2022-10-24T19:32:19.747Z,56.53
2022-10-24T19:34:46.216Z,56.72
2022-10-24T19:37:12.926Z,56.83
2022-10-24T19:39:39.852Z,56.40
2022-10-24T19:42:06.912Z,56.75
2022-10-24T19:44:33.543Z,56.50
2022-10-24T19:47:00.115Z,56.62
2022-10-24T19:49:26.641Z,56.95
2022-10-24T19:51:54.199Z,57.03
2022-10-24T19:54:20.711Z,56.85
2022-10-24T19:56:49.619Z,56.86
2022-10-24T19:59:16.693Z,57.15
2022-10-24T20:01:43.769Z,56.75
2022-10-24T20:04:10.427Z,57.19
2022-10-24T20:06:37.022Z,56.74
2022-10-24T20:09:03.608Z,56.82
2022-10-24T20:11:30.411Z,57.25
2022-10-24T20:13:57.020Z,57.45
2022-10-24T20:16:23.635Z,57.45
2022-10-24T20:18:50.347Z,57.13
2022-10-24T20:21:17.949Z,57.33
2022-10-24T20:23:45.697Z,57.69
2022-10-24T20:26:13.523Z,57.92
2022-10-24T20:28:41.231Z,57.62
2022-10-24T20:31:07.858Z,57.75
2022-10-24T20:33:34.440Z,58.00
2022-10-24T20:36:01.239Z,58.07
2022-10-24T20:38:28.009Z,58.12
2022-10-24T20:40:54.657Z,57.71
2022-10-24T20:43:21.180Z,57.78
2022-10-24T20:45:47.848Z,57.67
2022-10-24T20:48:14.470Z,57.68
2022-10-24T20:50:41.090Z,57.78
2022-10-24T20:53:07.567Z,57.88
2022-10-24T20:55:44.257Z,57.85
2022-10-24T20:58:14.473Z,57.79
2022-10-24T21:03:15.167Z,58.05
2022-10-24T21:05:41.748Z,58.46
2022-10-24T21:08:08.363Z,58.54
2022-10-24T21:10:34.930Z,58.56
2022-10-24T21:13:01.631Z,58.28
2022-10-24T21:15:28.204Z,58.41
2022-10-24T21:17:54.904Z,57.99
2022-10-24T21:20:21.541Z,57.91
2022-10-24T21:22:48.147Z,58.17
2022-10-24T21:25:14.763Z,57.78
2022-10-24T21:27:41.403Z,57.78
2022-10-24T21:30:12.149Z,58.08
2022-10-24T21:32:40.990Z,57.88
2022-10-24T21:35:07.631Z,58.05
2022-10-24T21:37:34.237Z,57.98
2022-10-24T21:40:00.807Z,57.57
2022-10-24T21:42:29.589Z,57.92
2022-10-24T21:44:56.123Z,57.63
2022-10-24T21:47:22.717Z,57.53
2022-10-24T21:49:49.328Z,57.74
2022-10-24T21:52:15.863Z,57.50
2022-10-24T21:54:42.833Z,57.49
2022-10-24T21:57:09.376Z,57.83
2022-10-24T21:59:36.266Z,57.62
2022-10-24T22:02:03.041Z,57.71
2022-10-24T22:04:29.784Z,57.81
2022-10-24T22:06:56.291Z,57.53
2022-10-24T22:09:23.915Z,57.30
2022-10-24T22:11:50.458Z,57.79
2022-10-24T22:14:17.208Z,57.87
2022-10-24T22:16:43.829Z,57.42
2022-10-24T22:19:11.261Z,57.72
2022-10-24T22:21:39.002Z,57.31
2022-10-24T22:24:10.017Z,57.35
2022-10-24T22:26:37.130Z,57.70
2022-10-24T22:29:04.037Z,57.34
2022-10-24T22:31:30.863Z,57.32
2022-10-24T22:33:57.855Z,57.58
2022-10-24T22:36:36.737Z,57.37
2022-10-24T22:39:04.090Z,57.59
2022-10-24T22:41:30.816Z,57.85
2022-10-24T22:43:57.536Z,57.60
2022-10-24T22:46:34.563Z,58.00
2022-10-24T22:49:05.143Z,57.92
2022-10-24T22:51:31.928Z,58.12
2022-10-24T22:53:58.660Z,58.29
2022-10-24T22:56:30.940Z,58.35
2022-10-24T22:58:57.740Z,58.53
2022-10-24T23:02:02.967Z,58.32
2022-10-24T23:04:29.744Z,58.32
2022-10-24T23:06:57.079Z,58.35
2022-10-24T23:09:23.715Z,58.26
2022-10-24T23:11:50.377Z,58.16
2022-10-24T23:16:51.452Z,58.30
2022-10-24T23:19:19.781Z,58.34
2022-10-24T23:21:53.674Z,58.25
2022-10-24T23:24:20.498Z,58.46
2022-10-24T23:27:13.351Z,58.57
2022-10-24T23:29:40.830Z,58.44
2022-10-24T23:32:33.534Z,58.56
2022-10-24T23:35:00.474Z,58.62
2022-10-24T23:37:27.048Z,58.66
2022-10-24T23:39:53.817Z,58.56
2022-10-24T23:42:20.491Z,58.65
2022-10-24T23:44:47.347Z,58.83
2022-10-24T23:47:16.908Z,58.64
2022-10-24T23:49:47.679Z,58.76
2022-10-24T23:52:27.541Z,58.86
2022-10-24T23:54:54.263Z,58.89
2022-10-24T23:57:21.018Z,58.69
2022-10-24T23:59:47.658Z,58.88
